Terminal Aerodrome Forecast
Issued by NWS

Home | Current Version | Previous Version | Text Only | Print | Product List | Glossary On
Versions: 1 2 3 4 5 6 7 8 9 10 11 12 13 14 15 16 17 18 19 20 21 22 23 24 25
000
FTUS43 KDLH 162300 RRA
TAFHYR
TAF
KHYR 162346Z 1700/1724 05014KT 1/4SM SN FZFG VV008
      TEMPO 1702/1706 1 1/2SM -SN OVC012
     FM170800 05012KT 1 1/2SM -SN OVC010
     FM171200 35009KT 3SM -SN OVC015
     FM171600 32009KT P6SM SCT025 BKN035=

USA.gov is the U.S. government's official web portal to all federal, state and local government web resources and services.